• Join FlightAware (Why Join?)
  • Login
  • US Flag 
01:58AM EDT


 

Airport Tracker/Info


-or-


 

Live Flight TrackerFlight Track Log ✈ N23139 ✈ 30-Apr-2013 ✈ KXNA - KEWR

Flight Track Log - Related Links

Times and Time Zones

All times are in EDT time to prevent confusion due to time zone crossing. See the N23139 flight status page for this flight to view local times or setup timezone preferences in your user account.

Time Position Orientation Groundspeed Altitude Reporting Facility
EDT Latitude Longitude Course Direction KTS MPH feet Rate Location/Type
08:42PM 36.2767 -94.3717 60° Northeast 254 292 6,600  Level Kansas City Center
08:43PM 36.5762 -94.3619 351° North  Level FlightAware Approximate
08:43PM 36.3531 -94.3786 356° North 264 304 9,200  Level Kansas City Center
08:44PM 36.6785 -94.3890 351° North  Level FlightAware Approximate
08:44PM 36.4331 -94.3872 355° North 275 316 11,500  Level Kansas City Center
08:45PM 36.7819 -94.4097 351° North  Level FlightAware Approximate
08:45PM 36.5283 -94.3311 25° Northeast 320 368 13,500  Level Kansas City Center
08:46PM 36.8575 -94.3812 60° Northeast  Level FlightAware Approximate
08:46PM 36.6014 -94.2442 44° Northeast 346 398 15,000  Level Kansas City Center
08:47PM 36.9098 -94.2677 60° Northeast  Level FlightAware Approximate
08:47PM 36.6769 -94.1536 44° Northeast 362 417 16,700  Level Kansas City Center
08:48PM 36.7553 -94.0589 44° Northeast 376 433 18,800 2,040 Climbing Kansas City Center
08:49PM 36.8308 -93.9650 45° Northeast 383 441 21,000 2,280 Climbing Kansas City Center
08:50PM 36.9072 -93.8750 43° Northeast 379 436 23,500 2,280 Climbing Kansas City Center
08:51PM 36.9800 -93.7897 43° Northeast 364 419 25,800 2,160 Climbing Kansas City Center
08:52PM 37.0528 -93.7014 44° Northeast 353 406 28,000 1,980 Climbing Kansas City Center
08:53PM 37.1222 -93.6169 44° Northeast 348 400 29,900 1,740 Climbing Kansas City Center
08:55PM 37.2000 -93.5108 47° Northeast 345 397 31,600 1,440 Climbing Kansas City Center
08:56PM 37.2564 -93.4106 55° Northeast 349 402 32,900 1,320 Climbing Kansas City Center
08:57PM 37.3142 -93.3111 54° Northeast 352 405 34,400 1,020 Climbing Kansas City Center
08:58PM 37.3717 -93.2108 54° Northeast 352 405 35,000 240 Climbing Kansas City Center
08:59PM 37.4319 -93.1008 55° Northeast 373 429 35,000  Level Kansas City Center
09:00PM 37.5000 -92.9850 53° Northeast 401 461 35,000  Level Kansas City Center
09:01PM 37.5694 -92.8625 54° Northeast 421 484 35,000  Level Kansas City Center
09:02PM 37.6394 -92.7347 55° Northeast 437 503 35,000  Level Kansas City Center
09:03PM 37.7150 -92.5986 55° Northeast 440 506 35,000  Level Kansas City Center
09:04PM 37.7842 -92.4753 55° Northeast 434 499 35,000  Level Kansas City Center
09:05PM 37.8531 -92.3514 55° Northeast 435 501 35,000  Level Kansas City Center
09:06PM 37.9347 -92.2000 56° Northeast 437 503 35,000  Level Kansas City Center
09:07PM 38.0044 -92.0769 54° Northeast 434 499 35,000  Level Kansas City Center
09:08PM 38.0769 -91.9458 55° Northeast 430 495 35,000  Level Kansas City Center
09:09PM 38.1456 -91.8208 55° Northeast 431 496 35,000  Level Kansas City Center
09:10PM 38.2128 -91.6964 55° Northeast 429 494 35,000  Level Kansas City Center
09:11PM 38.2825 -91.5714 55° Northeast 431 496 35,000  Level Kansas City Center
09:12PM 38.3492 -91.4453 56° Northeast 430 495 35,000  Level Kansas City Center
09:13PM 38.4122 -91.3283 55° Northeast 430 495 35,000  Level Kansas City Center
09:14PM 38.4928 -91.1761 56° Northeast 432 497 35,000  Level Kansas City Center
09:15PM 38.5606 -91.0503 55° Northeast 431 496 35,000  Level Kansas City Center
09:16PM 38.6286 -90.9225 56° Northeast 433 498 35,000  Level Kansas City Center
09:17PM 38.6964 -90.7933 56° Northeast 436 502 35,000  Level Kansas City Center
09:18PM 38.7719 -90.6542 55° Northeast 441 507 35,000  Level Kansas City Center
09:19PM 38.8433 -90.5231 55° Northeast 446 513 35,000  Level Kansas City Center
09:20PM 38.9139 -90.3897 56° Northeast 450 518 35,000  Level Kansas City Center
09:21PM 38.9831 -90.2603 55° Northeast 451 519 35,000  Level Kansas City Center
09:22PM 39.0550 -90.1267 55° Northeast 451 519 35,000  Level Kansas City Center
09:23PM 39.1386 -89.9692 56° Northeast 453 521 35,000  Level Kansas City Center
09:24PM 39.2117 -89.8319 55° Northeast 452 520 35,000  Level Kansas City Center
09:25PM 39.2831 -89.6978 55° Northeast 455 524 35,000  Level Kansas City Center
09:26PM 39.3539 -89.5628 56° Northeast 455 524 35,000  Level Kansas City Center
09:27PM 39.4253 -89.4272 56° Northeast 455 524 35,000  Level Kansas City Center
09:28PM 39.4961 -89.2942 55° Northeast 452 520 35,000  Level Kansas City Center
09:29PM 39.5589 -89.1378 62° Northeast 451 519 35,000  Level Kansas City Center
09:30PM 39.5864 -88.9814 77° East 448 516 35,000  Level Kansas City Center
09:32PM 39.6122 -88.8211 78° East 453 521 35,000  Level Kansas City Center
09:33PM 39.6386 -88.6628 78° East 451 519 35,000  Level Kansas City Center
09:34PM 39.6639 -88.5061 78° East 448 516 35,000  Level Kansas City Center
09:35PM 39.6886 -88.3453 79° East 450 518 35,000  Level Kansas City Center
09:36PM 39.7214 -88.1519 78° East 451 519 35,000  Level Kansas City Center
09:36PM 39.7281 -88.1064 79° East 453 521 35,000  Level Indianapolis Center
09:37PM 39.7511 -87.9472 79° East 449 517 35,000  Level Indianapolis Center
09:38PM 39.7764 -87.7864 78° East 450 518 35,000  Level Indianapolis Center
09:39PM 39.8006 -87.6269 79° East 447 514 35,000  Level Indianapolis Center
09:40PM 39.8256 -87.4672 78° East 447 514 35,000  Level Indianapolis Center
09:41PM 39.8489 -87.3081 79° East 446 513 35,000  Level Indianapolis Center
09:42PM 39.8725 -87.1492 79° East 445 512 35,000  Level Indianapolis Center
09:43PM 39.8961 -86.9908 79° East 444 511 35,000  Level Indianapolis Center
09:44PM 39.9194 -86.8322 79° East 442 509 35,000  Level Indianapolis Center
09:45PM 39.9422 -86.6731 79° East 443 510 35,000  Level Indianapolis Center
09:46PM 39.9656 -86.5133 79° East 443 510 35,000  Level Indianapolis Center
09:47PM 39.9886 -86.3522 79° East 444 511 35,000  Level Indianapolis Center
09:48PM 40.0044 -86.2447 79° East 446 513 35,000  Level Chicago Center
09:49PM 40.0258 -86.0842 80° East 443 510 35,000  Level Chicago Center
09:49PM 40.0364 -86.0036 80° East 444 511 35,000  Level Indianapolis Center
09:50PM 40.0578 -85.8439 80° East 443 510 35,000  Level Indianapolis Center
09:51PM 40.0792 -85.6836 80° East 444 511 35,000  Level Indianapolis Center
09:52PM 40.1014 -85.5244 80° East 443 510 35,000  Level Indianapolis Center
09:53PM 40.1219 -85.3639 80° East 446 513 35,000  Level Indianapolis Center
09:54PM 40.1433 -85.2039 80° East 446 513 35,000  Level Indianapolis Center
09:55PM 40.1644 -85.0436 80° East 444 511 35,000 -60 Level Indianapolis Center
09:56PM 40.1825 -84.8889 81° East 446 513 34,900  Descending Indianapolis Center
09:57PM 40.2033 -84.7283 80° East 445 512 35,000  Climbing Indianapolis Center
09:58PM 40.2272 -84.5692 79° East 444 511 35,000  Level Indianapolis Center
09:59PM 40.2872 -84.4253 61° Northeast 445 512 35,000  Level Indianapolis Center
10:00PM 40.3475 -84.2833 61° Northeast 439 505 35,000  Level Indianapolis Center
10:01PM 40.4067 -84.1389 62° Northeast 445 512 35,000  Level Indianapolis Center
10:03PM 40.4661 -83.9969 61° Northeast 441 507 35,000  Level Indianapolis Center
10:04PM 40.5258 -83.8536 61° Northeast 442 509 35,000  Level Indianapolis Center
10:05PM 40.5847 -83.7094 62° Northeast 442 509 35,000  Level Indianapolis Center
10:06PM 40.6539 -83.5472 61° Northeast 430 495 35,000  Level Cleveland Center
10:07PM 40.7161 -83.3939 62° Northeast 430 495 35,000  Level Cleveland Center
10:08PM 40.7717 -83.2508 63° Northeast 430 495 35,000  Level Cleveland Center
10:09PM 40.8292 -83.1106 62° Northeast 436 502 35,000  Level Cleveland Center
10:10PM 40.8778 -82.9806 64° Northeast 430 495 35,000  Level Cleveland Center
10:12PM 40.9919 -82.6986 62° Northeast 425 489 35,000  Level Cleveland Center
10:13PM 41.0486 -82.5544 62° Northeast 430 495 35,000  Level Cleveland Center
10:14PM 41.1053 -82.4156 62° Northeast 430 495 35,000  Level Cleveland Center
10:15PM 41.1639 -82.2600 63° Northeast 430 495 35,000  Level Cleveland Center
10:16PM 41.2200 -82.1153 63° Northeast 430 495 35,000  Level Cleveland Center
10:18PM 41.3342 -81.8247 62° Northeast 430 495 35,000  Level Cleveland Center
10:19PM 41.3897 -81.6819 63° Northeast 430 495 35,000  Level Cleveland Center
10:20PM 41.4389 -81.5525 63° Northeast 430 495 35,000  Level Cleveland Center
10:21PM 41.4922 -81.4119 63° Northeast 425 489 35,000  Level Cleveland Center
10:22PM 41.5472 -81.2628 64° Northeast 430 495 35,000  Level Cleveland Center
10:23PM 41.6003 -81.1192 64° Northeast 430 495 35,000  Level Cleveland Center
10:24PM 41.6611 -80.9639 62° Northeast 425 489 35,000  Level Cleveland Center
10:25PM 41.7158 -80.8142 64° Northeast 430 495 35,000  Level Cleveland Center
10:26PM 41.7703 -80.6694 63° Northeast 430 495 35,000  Level Cleveland Center
10:27PM 41.7953 -80.5108 78° East 430 495 35,000  Level Cleveland Center
10:28PM 41.7764 -80.3436 99° East 441 507 35,000  Level Cleveland Center
10:29PM 41.7569 -80.1794 99° East 449 517 35,000  Level Cleveland Center
10:30PM 41.7417 -80.0128 97° East 449 517 35,000  Level Cleveland Center
10:31PM 41.7261 -79.8458 97° East 449 517 35,000  Level Cleveland Center
10:32PM 41.7083 -79.6819 98° East 444 511 35,000  Level Cleveland Center
10:33PM 41.6903 -79.5181 98° East 449 517 35,000  Level Cleveland Center
10:34PM 41.6719 -79.3517 98° East 449 517 35,000  Level Cleveland Center
10:35PM 41.6581 -79.2186 98° East 444 511 35,000  Level Cleveland Center
10:36PM 41.6344 -79.0189 99° East 450 518 35,000  Level Cleveland Center
10:37PM 41.6175 -78.8528 98° East 450 518 35,000 -60 Level Cleveland Center
10:38PM 41.5983 -78.6867 99° East 450 518 34,900 -600 Descending Cleveland Center
10:39PM 41.5683 -78.4269 99° East 443 510 33,500 -900 Descending New York Center
10:40PM 41.5478 -78.2608 99° East 443 510 32,500 -1,020 Descending New York Center
10:41PM 41.5269 -78.0922 99° East 448 516 31,600 -780 Descending New York Center
10:42PM 41.5078 -77.9294 99° East 448 516 31,000 -300 Descending New York Center
10:43PM 41.4842 -77.7636 101° East 453 521 31,000  Level New York Center
10:44PM 41.4586 -77.5975 102° East 453 521 31,000  Level New York Center
10:45PM 41.4367 -77.4319 100° East 453 521 31,000  Level New York Center
10:46PM 41.4103 -77.2661 102° East 453 521 31,000  Level New York Center
10:47PM 41.3842 -77.0975 102° East 453 521 31,000 -120 Level New York Center
10:48PM 41.3614 -76.9350 101° East 453 521 30,800 -1,200 Descending New York Center
10:49PM 41.3344 -76.7694 102° East 453 521 28,700 -2,280 Descending New York Center
10:50PM 41.2922 -76.6111 109° East 453 521 26,300 -2,460 Descending New York Center
10:51PM 41.2481 -76.4500 110° East 459 528 23,900 -2,220 Descending New York Center
10:53PM 41.2085 -76.2970 109° East  Level FlightAware Approximate
10:53PM 41.1719 -76.1653 109° East 413 475 19,700  Level New York Center
10:54PM 41.1361 -76.0300 109° East 363 418 17,800 -1,800 Descending New York Center
10:55PM 41.1078 -75.9206 109° East 351 404 16,100 -1,500 Descending New York Center
10:56PM 41.0772 -75.8053 109° East 341 392 14,800 -1,320 Descending New York Center
10:57PM 41.0389 -75.6758 111° Southeast 336 387 13,500 -1,140 Descending New York Center
10:58PM 41.0081 -75.5636 110° East 336 387 12,600 -960 Descending New York Center
10:59PM 40.9772 -75.4544 110° East 330 380 11,600 -1,020 Descending New York Center
11:00PM 40.9458 -75.3478 111° Southeast 319 367 10,600 -1,020 Descending New York Center
11:01PM 40.9203 -75.2500 109° East 312 359 9,600 -960 Descending New York Center
11:02PM 40.8967 -75.1633 110° East 281 323 8,700 -900 Descending New York Center
11:03PM 40.8686 -75.0736 112° Southeast 267 307 7,800 -960 Descending New York Center
11:04PM 40.8786 -74.9728 82° East 243 280 6,800 -1,020 Descending New York Center
11:05PM 40.9064 -74.8894 66° East 237 273 5,800 -900 Descending New York Center
11:06PM 40.9261 -74.8000 74° East 249 287 5,000 -420 Descending New York Center
11:07PM 40.9292 -74.7150 87° East 243 280 5,000 -480 Level New York Center
11:08PM 40.9344 -74.6192 86° East 236 272 4,100 -540 Descending New York Center
11:09PM 40.9367 -74.5425 88° East 236 272 4,000 -60 Descending New York Center
11:10PM 40.9419 -74.4439 86° East 236 272 4,000  Level New York Center
11:11PM 40.9317 -74.3692 100° East 236 272 4,000 -360 Level New York Center
11:12PM 40.9094 -74.2772 108° East 236 272 3,300 -540 Descending New York Center
11:13PM 40.9000 -74.2000 99° East 206 237 3,000 -180 Descending New York TRACON
11:14PM 40.8833 -74.1333 108° East 193 222 3,000 -120 Level New York TRACON
11:15PM 40.8333 -74.1000 153° Southeast 197 227 2,800 -540 Descending New York TRACON
11:16PM 40.7833 -74.1000 180° South 207 238 2,000 -840 Descending New York TRACON